Aviation Digital Data Service (ADDS)

Output produced by METARs form (0052 UTC 25 July 2017)
found at http://aviationweather.gov/adds/metars/
 
KDFW 242320Z 2500/2606 13007KT P6SM FEW040 
     FM251600 18010KT P6SM SCT070